logo
Rechercher aéroport 
image banner adimage banner adimage banner ad
image banner ad

FABONW - Bonwa Phala

Situé à , South Africa

ICAO - , IATA -

Données fournies par Airmate  

Information générale

Coordonnées: S24°54'22" E28°10'46"
Élévation : 3772 feet MSL.
 
Voir autres Aéroports à Limpopo

Données opérationnelles

Special qualification required
Heure actuelle UTC:
Heure actuelle locale:
Météo à : - ( 0 km )
METAR: ZMCK 220730Z 08003MPS 040V110 9999 FEW030CB BKN033 14/08 Q1016 NOSIG RMK QFE646.5 72 MOP
Voir NOTAMs / SUP AIP / TFR affectant cet aéroport [VIEW]
Fréquences de communication: [VIEW]

Pistes:

Identifiant RWYQFULongueur (ft)Largeur (ft)SurfaceLDA (ft)
03160°295366GRASS
21340°295366GRASS

Coordonnées de l'aéroport

Adresse: South Africa

Vue satellite de FABONW